Time;durP1;ratioP1;P1;durP2;ratioP2;P2;SDS_P1;SDS_P2;PMS_P1;PMS_P2;Temp;Humidity;BMP_temperature;BMP_pressure;BME280_temperature;BME280_humidity;BME280_pressure;Samples;Min_cycle;Max_cycle;Signal;HPM_P1;HPM_P2
2024/01/31 00:01:53;;;;;;;14.43;5.97;;;1.00;99.90;;;;;;4345733;28;656554;-70
2024/01/31 00:04:40;;;;;;;8.83;3.23;;;1.00;99.90;;;;;;4365167;28;656921;-70
2024/01/31 00:07:27;;;;;;;16.20;7.23;;;1.00;99.90;;;;;;4416268;28;655737;-70
2024/01/31 00:10:16;;;;;;;21.20;8.33;;;1.00;99.90;;;;;;4439014;28;656111;-70
2024/01/31 00:13:03;;;;;;;20.90;8.03;;;1.00;99.90;;;;;;4416199;28;656877;-70
2024/01/31 00:15:50;;;;;;;16.10;6.47;;;1.00;99.90;;;;;;4441374;28;656858;-70
2024/01/31 00:18:38;;;;;;;19.80;7.70;;;1.00;99.90;;;;;;4415841;28;657211;-70
2024/01/31 00:21:25;;;;;;;20.30;7.47;;;1.00;99.90;;;;;;4432708;28;656858;-70
2024/01/31 00:24:12;;;;;;;19.17;6.83;;;1.00;99.90;;;;;;4431183;28;657013;-70
2024/01/31 00:27:01;;;;;;;19.47;8.30;;;1.10;99.90;;;;;;4443139;28;657471;-70
2024/01/31 00:29:48;;;;;;;20.17;7.13;;;1.10;99.90;;;;;;4411411;28;656789;-70
2024/01/31 00:32:35;;;;;;;16.77;6.43;;;1.10;99.90;;;;;;4430369;28;657401;-70
2024/01/31 00:35:22;;;;;;;20.73;6.78;;;1.00;99.90;;;;;;4407172;28;656538;-70
2024/01/31 00:38:10;;;;;;;25.43;7.87;;;1.10;99.90;;;;;;4439242;28;656723;-70
2024/01/31 00:40:57;;;;;;;19.40;8.17;;;1.00;99.90;;;;;;4434525;28;657135;-70
2024/01/31 00:43:45;;;;;;;23.53;8.23;;;1.00;99.90;;;;;;4414133;28;656309;-70
2024/01/31 00:46:32;;;;;;;21.38;8.45;;;0.90;99.90;;;;;;4408249;28;656586;-70
2024/01/31 00:49:20;;;;;;;17.97;8.17;;;1.00;99.90;;;;;;4433936;28;656840;-70
2024/01/31 00:52:07;;;;;;;21.80;8.60;;;0.90;99.90;;;;;;4433908;28;656991;-70
2024/01/31 00:54:54;;;;;;;17.83;6.80;;;0.90;99.90;;;;;;4416820;28;656823;-70
2024/01/31 00:57:41;;;;;;;21.00;8.80;;;0.90;99.90;;;;;;4441292;28;656730;-70
2024/01/31 01:00:30;;;;;;;13.33;4.70;;;0.70;99.90;;;;;;4412856;28;656778;-70
2024/01/31 01:03:17;;;;;;;21.13;9.70;;;0.70;99.90;;;;;;4430557;28;656995;-70
2024/01/31 01:06:05;;;;;;;20.10;9.87;;;0.80;99.90;;;;;;4432192;28;656943;-70
2024/01/31 01:08:52;;;;;;;24.57;9.63;;;0.70;99.90;;;;;;4398188;28;656976;-70
2024/01/31 01:11:40;;;;;;;20.93;9.23;;;0.80;99.90;;;;;;4442060;28;655792;-70
2024/01/31 01:14:27;;;;;;;22.60;10.53;;;0.80;99.90;;;;;;4434868;28;656633;-70
2024/01/31 01:17:15;;;;;;;22.20;10.27;;;0.70;99.90;;;;;;4415579;28;658038;-70
2024/01/31 01:20:03;;;;;;;22.08;9.07;;;0.70;99.90;;;;;;4410355;28;658741;-70
2024/01/31 01:22:50;;;;;;;22.70;8.93;;;0.60;99.90;;;;;;4435106;28;656774;-70
2024/01/31 01:25:37;;;;;;;22.30;11.10;;;0.70;99.90;;;;;;4427480;28;656283;-70
2024/01/31 01:28:25;;;;;;;18.63;8.33;;;0.60;99.90;;;;;;4437177;28;657908;-70
2024/01/31 01:31:13;;;;;;;20.90;8.73;;;0.60;99.90;;;;;;4432982;28;656853;-70
2024/01/31 01:34:02;;;;;;;23.77;9.67;;;0.60;99.90;;;;;;4414086;28;656610;-70
2024/01/31 01:36:49;;;;;;;23.87;9.60;;;0.50;99.90;;;;;;4412507;28;657015;-70
2024/01/31 01:39:37;;;;;;;28.17;11.23;;;0.50;99.90;;;;;;4433588;28;656947;-70
2024/01/31 01:42:24;;;;;;;25.77;10.27;;;0.40;99.90;;;;;;4413043;28;657268;-70
2024/01/31 01:45:12;;;;;;;25.27;10.30;;;0.20;99.90;;;;;;4430603;28;658235;-70
2024/01/31 01:47:59;;;;;;;23.70;10.60;;;0.20;99.90;;;;;;4396676;28;658234;-70
2024/01/31 01:50:48;;;;;;;12.83;5.57;;;0.10;99.90;;;;;;4431697;28;657411;-70
2024/01/31 01:53:36;;;;;;;24.90;11.07;;;0.20;99.90;;;;;;4409647;28;657110;-70
2024/01/31 01:56:24;;;;;;;26.90;11.70;;;0.20;99.90;;;;;;4411634;28;657862;-70
2024/01/31 01:59:11;;;;;;;25.30;10.03;;;0.10;99.90;;;;;;4433518;28;658924;-70
2024/01/31 02:01:58;;;;;;;28.73;11.57;;;0.00;99.90;;;;;;4414531;28;658106;-70
2024/01/31 02:04:45;;;;;;;27.33;11.47;;;-0.10;99.90;;;;;;4426937;28;657817;-70
2024/01/31 02:07:34;;;;;;;26.90;11.20;;;0.00;99.90;;;;;;4403146;28;659013;-70
2024/01/31 02:10:22;;;;;;;24.90;10.47;;;-0.10;99.90;;;;;;4441081;28;657202;-70
2024/01/31 02:13:09;;;;;;;24.03;10.93;;;-0.10;99.90;;;;;;4414164;28;659329;-70
2024/01/31 02:15:57;;;;;;;27.80;10.90;;;-0.10;99.90;;;;;;4425572;28;658593;-70
2024/01/31 02:18:45;;;;;;;25.67;10.67;;;-0.10;99.90;;;;;;4415167;28;659769;-70
2024/01/31 02:21:32;;;;;;;27.90;10.80;;;-0.10;99.90;;;;;;4440028;28;659270;-70
2024/01/31 02:24:20;;;;;;;25.20;10.67;;;-0.20;99.90;;;;;;4415422;28;659147;-70
2024/01/31 02:27:07;;;;;;;28.23;11.30;;;-0.40;99.90;;;;;;4415371;28;658955;-70
2024/01/31 02:29:55;;;;;;;26.43;11.23;;;-0.40;99.90;;;;;;4441853;28;659201;-70
2024/01/31 02:32:42;;;;;;;23.80;10.80;;;-0.40;99.90;;;;;;4414816;28;659065;-70
2024/01/31 02:35:31;;;;;;;26.83;11.83;;;-0.30;99.90;;;;;;4422836;28;659184;-70
2024/01/31 02:38:19;;;;;;;19.73;10.20;;;-0.10;99.90;;;;;;4395549;28;658683;-70
2024/01/31 02:41:08;;;;;;;26.70;9.40;;;-0.10;99.90;;;;;;4439057;28;658552;-70
2024/01/31 02:43:55;;;;;;;26.90;11.70;;;-0.10;99.90;;;;;;4394735;28;658184;-70
2024/01/31 02:46:42;;;;;;;27.63;11.50;;;-0.10;99.90;;;;;;4411845;28;659774;-70
2024/01/31 02:49:30;;;;;;;29.67;11.57;;;-0.10;99.90;;;;;;4434013;28;659323;-70
2024/01/31 02:52:17;;;;;;;25.20;11.20;;;-0.10;99.90;;;;;;4417523;28;659075;-70
2024/01/31 02:55:05;;;;;;;23.73;9.87;;;0.10;99.90;;;;;;4423028;28;658471;-70
2024/01/31 02:57:54;;;;;;;26.57;11.17;;;0.20;99.90;;;;;;4410175;28;656554;-70
2024/01/31 03:00:41;;;;;;;23.83;10.60;;;0.20;99.90;;;;;;4421731;28;657578;-70
2024/01/31 03:03:28;;;;;;;26.53;11.10;;;0.10;99.90;;;;;;4411654;28;658009;-70
2024/01/31 03:06:16;;;;;;;26.17;11.07;;;0.00;99.90;;;;;;4428861;28;658290;-70
2024/01/31 03:09:03;;;;;;;22.63;10.43;;;0.10;99.90;;;;;;4401424;28;657321;-70
2024/01/31 03:11:50;;;;;;;24.27;11.37;;;0.10;99.90;;;;;;4434489;28;657833;-70
2024/01/31 03:14:40;;;;;;;24.83;10.93;;;0.10;99.90;;;;;;4413905;28;657781;-70
2024/01/31 03:17:27;;;;;;;22.03;10.33;;;0.20;99.90;;;;;;4437234;28;657106;-70
2024/01/31 03:20:14;;;;;;;24.70;10.60;;;0.20;99.90;;;;;;4409125;28;658495;-70
2024/01/31 03:23:01;;;;;;;23.83;10.97;;;0.20;99.90;;;;;;4431601;28;657523;-70
2024/01/31 03:25:50;;;;;;;23.43;11.03;;;0.10;99.90;;;;;;4419211;28;657603;-70
2024/01/31 03:28:37;;;;;;;27.73;11.13;;;0.10;99.90;;;;;;4425128;28;657151;-70
2024/01/31 03:31:26;;;;;;;23.77;10.93;;;0.10;99.90;;;;;;4433347;28;658493;-70
2024/01/31 03:34:13;;;;;;;26.00;10.97;;;0.10;99.90;;;;;;4396894;28;657726;-70
2024/01/31 03:37:02;;;;;;;26.37;12.00;;;-0.10;99.90;;;;;;4434824;28;657925;-70
2024/01/31 03:39:49;;;;;;;27.73;12.40;;;0.00;99.90;;;;;;4406522;28;659911;-70
2024/01/31 03:42:37;;;;;;;24.70;10.03;;;-0.10;99.90;;;;;;4430372;28;657766;-70
2024/01/31 03:45:24;;;;;;;26.80;13.17;;;-0.20;99.90;;;;;;4405072;28;658880;-70
2024/01/31 03:48:14;;;;;;;29.50;12.47;;;-0.10;99.90;;;;;;4429442;28;659177;-70
2024/01/31 03:51:01;;;;;;;28.00;12.37;;;-0.10;99.90;;;;;;4431189;28;658920;-70
2024/01/31 03:53:49;;;;;;;24.80;11.50;;;-0.20;99.90;;;;;;4398475;28;659280;-70
2024/01/31 03:56:36;;;;;;;23.93;11.10;;;-0.20;99.90;;;;;;4427609;28;658925;-70
2024/01/31 03:59:23;;;;;;;33.00;12.27;;;-0.20;99.90;;;;;;4399573;28;659255;-70
2024/01/31 04:02:10;;;;;;;25.10;11.30;;;-0.20;99.90;;;;;;4342109;28;658683;-71
2024/01/31 04:04:59;;;;;;;25.90;11.70;;;-0.20;99.90;;;;;;4321169;28;658552;-70
2024/01/31 04:07:46;;;;;;;28.77;12.47;;;-0.30;99.90;;;;;;4340004;28;658933;-70
2024/01/31 04:10:33;;;;;;;29.63;12.05;;;-0.20;99.90;;;;;;4357448;28;658824;-70
2024/01/31 04:13:21;;;;;;;29.02;12.13;;;-0.20;99.90;;;;;;4435787;28;659695;-70
2024/01/31 04:16:08;;;;;;;28.47;12.77;;;-0.10;99.90;;;;;;4408481;28;658844;-70
2024/01/31 04:18:55;;;;;;;29.27;11.47;;;-0.10;99.90;;;;;;4418116;28;660066;-70
2024/01/31 04:21:44;;;;;;;25.43;12.33;;;-0.10;99.90;;;;;;4417391;28;658950;-70
2024/01/31 04:24:31;;;;;;;28.73;11.70;;;0.00;99.90;;;;;;4415932;28;658092;-70
2024/01/31 04:27:18;;;;;;;27.47;13.37;;;0.00;99.90;;;;;;4393695;28;657902;-70
2024/01/31 04:30:09;;;;;;;31.20;13.07;;;0.10;99.90;;;;;;4434221;28;657932;-70
2024/01/31 04:32:59;;;;;;;29.50;13.60;;;0.00;99.90;;;;;;4406850;28;657908;-70
2024/01/31 04:35:46;;;;;;;27.65;13.30;;;0.10;99.90;;;;;;4393532;28;657571;-70
2024/01/31 04:38:35;;;;;;;28.00;12.60;;;0.10;99.90;;;;;;4407870;28;658303;-70
2024/01/31 04:41:22;;;;;;;26.48;12.38;;;0.10;99.90;;;;;;4397383;28;658904;-70
2024/01/31 04:44:10;;;;;;;32.33;13.93;;;0.00;99.90;;;;;;4425427;28;657910;-70
2024/01/31 04:46:57;;;;;;;19.13;9.17;;;0.10;99.90;;;;;;4437108;28;657713;-70
2024/01/31 04:49:44;;;;;;;28.43;12.90;;;0.20;99.90;;;;;;4417303;28;656824;-70
2024/01/31 04:52:31;;;;;;;30.55;12.95;;;0.20;99.90;;;;;;4435482;28;657928;-70
2024/01/31 04:55:20;;;;;;;28.77;12.87;;;0.20;99.90;;;;;;4411538;28;657767;-70
2024/01/31 04:58:07;;;;;;;33.05;14.82;;;0.20;99.90;;;;;;4416631;28;658102;-70
2024/01/31 05:00:55;;;;;;;28.03;13.10;;;0.20;99.90;;;;;;4426920;28;657640;-70
2024/01/31 05:03:42;;;;;;;30.77;12.77;;;0.20;99.90;;;;;;4425973;28;658090;-70
2024/01/31 05:06:29;;;;;;;34.00;13.70;;;0.20;99.90;;;;;;4392778;28;657856;-70
2024/01/31 05:09:16;;;;;;;31.85;13.40;;;0.20;99.90;;;;;;4422853;28;657507;-70
2024/01/31 05:12:06;;;;;;;25.47;10.27;;;0.20;99.90;;;;;;4394817;28;657192;-70
2024/01/31 05:14:53;;;;;;;29.97;12.47;;;0.10;99.90;;;;;;4412528;28;657745;-70
2024/01/31 05:17:40;;;;;;;32.80;14.30;;;0.30;99.90;;;;;;4428842;28;657244;-70
2024/01/31 05:20:29;;;;;;;30.67;12.80;;;0.20;99.90;;;;;;4419338;28;658060;-70
2024/01/31 05:23:16;;;;;;;28.50;13.47;;;0.20;99.90;;;;;;4429891;28;657665;-70
2024/01/31 05:26:08;;;;;;;33.90;14.10;;;0.30;99.90;;;;;;4402793;28;657598;-70
2024/01/31 05:28:56;;;;;;;30.13;13.67;;;0.40;99.90;;;;;;4399918;28;657957;-70
2024/01/31 05:31:43;;;;;;;28.37;13.43;;;0.40;99.90;;;;;;4415323;28;657829;-70
2024/01/31 05:34:30;;;;;;;34.37;14.37;;;0.40;99.90;;;;;;4439158;28;658477;-70
2024/01/31 05:37:17;;;;;;;36.20;13.57;;;0.40;99.90;;;;;;4409207;28;659280;-70
2024/01/31 05:40:06;;;;;;;32.57;14.70;;;0.40;99.90;;;;;;4434802;28;658281;-70
2024/01/31 05:42:53;;;;;;;25.90;12.03;;;0.40;99.90;;;;;;4413851;28;657588;-70
2024/01/31 05:45:42;;;;;;;27.60;13.57;;;0.40;99.90;;;;;;4432137;28;659061;-70
2024/01/31 05:48:30;;;;;;;29.70;14.07;;;0.40;99.90;;;;;;4417431;28;658208;-70
2024/01/31 05:51:17;;;;;;;33.57;14.67;;;0.50;99.90;;;;;;4434018;28;657505;-70
2024/01/31 05:54:04;;;;;;;37.57;17.07;;;0.50;99.90;;;;;;4405988;28;657580;-70
2024/01/31 05:56:52;;;;;;;30.53;14.97;;;0.50;99.90;;;;;;4429497;28;657770;-70
2024/01/31 05:59:41;;;;;;;33.37;13.93;;;0.50;99.90;;;;;;4416399;28;658440;-70
2024/01/31 06:02:30;;;;;;;31.77;13.77;;;0.50;99.90;;;;;;4423426;28;657467;-70
2024/01/31 06:05:17;;;;;;;33.57;14.00;;;0.50;99.90;;;;;;4426330;28;659382;-70
2024/01/31 06:08:05;;;;;;;25.83;13.00;;;0.50;99.90;;;;;;4441913;28;657524;-70
2024/01/31 06:10:58;;;;;;;27.77;13.03;;;0.60;99.90;;;;;;4415917;28;657783;-70
2024/01/31 06:13:45;;;;;;;33.10;15.40;;;0.60;99.90;;;;;;4404822;28;657994;-70
2024/01/31 06:16:33;;;;;;;29.77;13.80;;;0.60;99.90;;;;;;4423450;28;657718;-70
2024/01/31 06:19:21;;;;;;;37.87;17.03;;;0.60;99.90;;;;;;4434403;28;658216;-70
2024/01/31 06:22:08;;;;;;;28.63;11.60;;;0.70;99.90;;;;;;4417450;28;658104;-70
2024/01/31 06:24:55;;;;;;;27.13;13.37;;;0.70;99.90;;;;;;4429886;28;658278;-70
2024/01/31 06:27:43;;;;;;;32.83;14.40;;;0.60;99.90;;;;;;4408262;28;657594;-70
2024/01/31 06:30:34;;;;;;;34.13;14.00;;;0.70;99.90;;;;;;4430524;28;658326;-70
2024/01/31 06:33:27;;;;;;;34.57;15.03;;;0.80;99.90;;;;;;4415563;28;658024;-70
2024/01/31 06:36:18;;;;;;;32.83;12.43;;;0.80;99.90;;;;;;4412921;28;657967;-70
2024/01/31 06:39:05;;;;;;;20.52;8.18;;;0.90;99.90;;;;;;4416874;28;658281;-70
2024/01/31 06:41:53;;;;;;;19.80;7.90;;;0.90;99.90;;;;;;4400979;28;656754;-70
2024/01/31 06:44:40;;;;;;;30.23;13.53;;;0.90;99.90;;;;;;4430218;28;656970;-70
2024/01/31 06:47:27;;;;;;;34.17;15.03;;;1.00;99.90;;;;;;4406843;28;657508;-70
2024/01/31 06:50:15;;;;;;;34.60;14.50;;;1.00;99.90;;;;;;4438244;28;657950;-70
2024/01/31 06:53:03;;;;;;;30.47;13.37;;;1.10;99.90;;;;;;4434322;28;657616;-70
2024/01/31 06:55:51;;;;;;;32.70;14.03;;;1.20;99.90;;;;;;4414521;28;658511;-70
2024/01/31 06:58:38;;;;;;;31.97;14.13;;;1.20;99.90;;;;;;4410489;28;657719;-70
2024/01/31 07:01:25;;;;;;;37.60;15.80;;;1.30;99.90;;;;;;4432655;28;658545;-70
2024/01/31 07:04:12;;;;;;;27.43;12.40;;;1.20;99.90;;;;;;4430452;28;657619;-70
2024/01/31 07:06:59;;;;;;;34.60;14.30;;;1.30;99.90;;;;;;4432395;28;657815;-70
2024/01/31 07:09:48;;;;;;;34.40;13.13;;;1.30;99.90;;;;;;4434764;28;656935;-70
2024/01/31 07:12:35;;;;;;;26.67;10.43;;;1.40;99.90;;;;;;4407458;28;658463;-70
2024/01/31 07:15:22;;;;;;;34.85;15.75;;;1.40;99.90;;;;;;4411642;28;657515;-70
2024/01/31 07:18:10;;;;;;;32.27;14.03;;;1.40;99.90;;;;;;4434048;28;658645;-70
2024/01/31 07:20:58;;;;;;;31.80;14.80;;;1.40;99.90;;;;;;4413450;28;658334;-70
2024/01/31 07:23:45;;;;;;;28.13;13.43;;;1.40;99.90;;;;;;4426994;28;657841;-69
2024/01/31 07:26:34;;;;;;;17.30;7.33;;;1.50;99.90;;;;;;4427455;28;657469;-70
2024/01/31 07:29:21;;;;;;;28.83;12.70;;;1.50;99.90;;;;;;4431120;28;655863;-70
2024/01/31 07:32:08;;;;;;;38.47;15.63;;;1.50;99.90;;;;;;4398394;28;657663;-70
2024/01/31 07:34:55;;;;;;;37.27;15.40;;;1.60;99.90;;;;;;4410911;28;658387;-70
2024/01/31 07:37:42;;;;;;;34.07;16.50;;;1.60;99.90;;;;;;4421589;28;657464;-70
2024/01/31 07:40:30;;;;;;;30.73;14.40;;;1.60;99.90;;;;;;4430778;28;658609;-70
2024/01/31 07:43:19;;;;;;;21.53;8.67;;;1.60;99.90;;;;;;4425579;28;657682;-70
2024/01/31 07:46:06;;;;;;;37.93;16.90;;;1.70;99.90;;;;;;4427335;28;656607;-70
2024/01/31 07:48:54;;;;;;;32.33;14.73;;;1.70;99.90;;;;;;4405019;28;658657;-70
2024/01/31 07:51:44;;;;;;;33.63;15.57;;;1.70;99.90;;;;;;4441663;28;657528;-69
2024/01/31 07:54:31;;;;;;;37.27;16.37;;;1.80;99.90;;;;;;4405728;28;657466;-69
2024/01/31 07:57:18;;;;;;;16.73;7.17;;;1.70;99.90;;;;;;4414531;28;658282;-69
2024/01/31 08:00:09;;;;;;;36.33;16.03;;;1.80;99.90;;;;;;4429785;28;656940;-69
2024/01/31 08:02:56;;;;;;;36.40;18.53;;;1.80;99.90;;;;;;4406060;28;658074;-69
2024/01/31 08:05:43;;;;;;;37.10;16.20;;;1.70;99.90;;;;;;4413587;28;657441;-69
2024/01/31 08:08:30;;;;;;;24.63;9.83;;;1.70;99.90;;;;;;4427563;28;657766;-70
2024/01/31 08:11:17;;;;;;;34.53;16.97;;;1.80;99.90;;;;;;4412212;28;657581;-70
2024/01/31 08:14:05;;;;;;;36.37;13.43;;;1.80;99.90;;;;;;4444807;28;658052;-70
2024/01/31 08:16:53;;;;;;;30.97;14.00;;;1.80;99.90;;;;;;4431125;28;657014;-70
2024/01/31 08:19:41;;;;;;;32.03;15.43;;;1.90;99.90;;;;;;4403880;28;657887;-69
2024/01/31 08:22:28;;;;;;;25.70;9.73;;;1.80;99.90;;;;;;4409108;28;658213;-69
2024/01/31 08:25:15;;;;;;;26.43;12.40;;;1.90;99.90;;;;;;4443554;28;658068;-70
2024/01/31 08:28:02;;;;;;;28.37;12.87;;;1.90;99.90;;;;;;4413158;28;658129;-69
2024/01/31 08:30:50;;;;;;;32.47;17.07;;;1.90;99.90;;;;;;4428880;28;658676;-69
2024/01/31 08:33:38;;;;;;;26.50;12.30;;;1.80;99.90;;;;;;4437069;28;657434;-69
2024/01/31 08:36:25;;;;;;;31.77;14.23;;;1.80;99.90;;;;;;4404581;28;657816;-70
2024/01/31 08:39:12;;;;;;;31.25;16.52;;;1.80;99.90;;;;;;4415293;28;659050;-69
2024/01/31 08:42:00;;;;;;;30.77;15.87;;;1.80;99.90;;;;;;4435704;28;659366;-69
2024/01/31 08:44:47;;;;;;;28.73;11.10;;;1.80;99.90;;;;;;4430809;28;657956;-69
2024/01/31 08:47:34;;;;;;;37.20;17.23;;;1.80;99.90;;;;;;4408970;28;658649;-69
2024/01/31 08:50:22;;;;;;;35.73;16.27;;;1.80;99.90;;;;;;4412718;28;657252;-69
2024/01/31 08:53:10;;;;;;;38.53;16.57;;;1.90;99.90;;;;;;4406472;28;658297;-70
2024/01/31 08:55:57;;;;;;;31.63;14.40;;;1.90;99.90;;;;;;4420504;28;657913;-69
2024/01/31 08:58:44;;;;;;;31.30;15.40;;;2.00;99.90;;;;;;4418059;28;658139;-69
2024/01/31 09:01:32;;;;;;;39.87;16.40;;;1.90;99.90;;;;;;4430775;28;656872;-69
2024/01/31 09:04:19;;;;;;;12.50;6.03;;;2.00;99.90;;;;;;4416444;28;658313;-70
2024/01/31 09:07:08;;;;;;;37.37;18.53;;;2.00;99.90;;;;;;4440900;28;656444;-70
2024/01/31 09:09:55;;;;;;;29.77;13.60;;;2.00;99.90;;;;;;4406365;28;657720;-69
2024/01/31 09:12:42;;;;;;;41.33;19.57;;;2.00;99.90;;;;;;4416986;28;658050;-70
2024/01/31 09:15:30;;;;;;;37.20;15.37;;;1.90;99.90;;;;;;4433542;28;657763;-69
2024/01/31 09:18:17;;;;;;;34.37;15.73;;;2.00;99.90;;;;;;4441487;28;657421;-70
2024/01/31 09:21:04;;;;;;;36.10;17.73;;;2.10;99.90;;;;;;4407150;28;658364;-70
2024/01/31 09:23:53;;;;;;;36.20;17.47;;;2.10;99.90;;;;;;4436827;28;657096;-70
2024/01/31 09:26:40;;;;;;;34.70;13.63;;;2.10;99.90;;;;;;4407859;28;658652;-70
2024/01/31 09:29:27;;;;;;;39.90;18.73;;;2.10;99.90;;;;;;4426231;28;657256;-70
2024/01/31 09:32:15;;;;;;;43.63;18.27;;;2.10;99.90;;;;;;4439226;28;658726;-69
2024/01/31 09:35:03;;;;;;;35.37;16.53;;;2.20;99.90;;;;;;4420749;28;657711;-70
2024/01/31 09:37:50;;;;;;;31.93;13.43;;;2.30;99.90;;;;;;4433519;28;658186;-70
2024/01/31 09:40:39;;;;;;;42.07;18.33;;;2.30;99.90;;;;;;4428740;28;657848;-70
2024/01/31 09:43:26;;;;;;;23.67;10.47;;;2.30;99.90;;;;;;4397540;28;657863;-70
2024/01/31 09:46:13;;;;;;;31.83;14.00;;;2.40;99.90;;;;;;4379668;28;659808;-70
2024/01/31 09:49:01;;;;;;;40.23;18.83;;;2.40;99.90;;;;;;4401163;28;658885;-70
2024/01/31 09:51:48;;;;;;;32.33;15.07;;;2.40;99.90;;;;;;4380273;28;657801;-70
2024/01/31 09:54:35;;;;;;;40.37;19.33;;;2.50;99.90;;;;;;4405019;28;657486;-70
2024/01/31 09:57:24;;;;;;;26.92;12.60;;;2.50;99.90;;;;;;4385624;28;657769;-70
2024/01/31 10:00:12;;;;;;;37.73;17.40;;;2.60;99.90;;;;;;4404129;28;657711;-70
2024/01/31 10:02:59;;;;;;;31.53;13.40;;;2.60;99.90;;;;;;4377415;28;657800;-70
2024/01/31 10:05:46;;;;;;;44.87;19.87;;;2.70;99.90;;;;;;4399458;28;657135;-70
2024/01/31 10:08:33;;;;;;;37.03;17.77;;;2.60;99.90;;;;;;4380315;28;657822;-70
2024/01/31 10:11:20;;;;;;;22.83;9.33;;;2.60;99.90;;;;;;4316669;28;657726;-71
2024/01/31 10:14:09;;;;;;;28.77;13.97;;;2.60;99.90;;;;;;4285794;28;656545;-70
2024/01/31 10:16:56;;;;;;;41.60;19.33;;;2.50;99.90;;;;;;4305018;28;657959;-70
2024/01/31 10:19:43;;;;;;;39.47;18.98;;;2.60;99.90;;;;;;4330614;28;658510;-70
2024/01/31 10:22:32;;;;;;;18.10;6.13;;;2.70;99.90;;;;;;4400604;28;659088;-70
2024/01/31 10:25:19;;;;;;;42.70;17.17;;;2.70;99.90;;;;;;4377579;28;657991;-70
2024/01/31 10:28:07;;;;;;;37.03;16.37;;;2.80;99.90;;;;;;4403303;28;657055;-70
2024/01/31 10:30:56;;;;;;;45.77;18.47;;;2.80;99.90;;;;;;4390843;28;659350;-70
2024/01/31 10:33:44;;;;;;;39.17;17.57;;;2.70;99.90;;;;;;4377049;28;657758;-70
2024/01/31 10:36:31;;;;;;;31.03;15.63;;;2.80;99.90;;;;;;4401488;28;657821;-70
2024/01/31 10:39:20;;;;;;;33.83;14.37;;;2.80;99.90;;;;;;4379227;28;658097;-70
2024/01/31 10:42:07;;;;;;;39.22;19.45;;;2.80;99.90;;;;;;4395510;28;657704;-70
2024/01/31 10:44:56;;;;;;;41.43;17.13;;;2.80;99.90;;;;;;4434668;28;658898;-70
2024/01/31 10:47:45;;;;;;;41.27;20.07;;;2.80;99.90;;;;;;4414570;28;657811;-70
2024/01/31 10:50:32;;;;;;;33.83;16.30;;;2.70;99.90;;;;;;4427070;28;658115;-70
2024/01/31 10:53:20;;;;;;;42.10;18.47;;;2.80;99.90;;;;;;4437543;28;658217;-70
2024/01/31 10:56:08;;;;;;;38.47;19.87;;;2.80;99.90;;;;;;4417260;28;657865;-70
2024/01/31 10:58:57;;;;;;;40.07;18.70;;;2.80;99.90;;;;;;4432550;28;658456;-70
2024/01/31 11:01:51;;;;;;;44.73;19.30;;;2.70;99.90;;;;;;4394828;28;658319;-70
2024/01/31 11:04:40;;;;;;;40.72;19.13;;;2.80;99.90;;;;;;4410263;28;657673;-70
2024/01/31 11:07:27;;;;;;;37.80;16.97;;;2.70;99.90;;;;;;4420163;28;657873;-70
2024/01/31 11:10:17;;;;;;;37.57;18.83;;;2.70;99.90;;;;;;4436513;28;658352;-70
2024/01/31 11:13:05;;;;;;;21.50;10.40;;;2.70;99.90;;;;;;4407829;28;657528;-71
2024/01/31 11:15:52;;;;;;;50.03;22.37;;;2.60;99.90;;;;;;4430896;28;657475;-70
2024/01/31 11:18:40;;;;;;;43.03;23.60;;;2.60;99.90;;;;;;4420520;28;658150;-70
2024/01/31 11:21:28;;;;;;;20.10;7.47;;;2.70;99.90;;;;;;4425881;28;657679;-70
2024/01/31 11:24:15;;;;;;;43.63;20.73;;;2.80;99.90;;;;;;4409532;28;657003;-70
2024/01/31 11:27:03;;;;;;;42.42;21.70;;;2.80;99.90;;;;;;4413173;28;657834;-70
2024/01/31 11:29:52;;;;;;;41.97;20.90;;;2.70;99.90;;;;;;4434096;28;658688;-70
2024/01/31 11:32:39;;;;;;;37.77;19.60;;;2.70;99.90;;;;;;4420522;28;657707;-70
2024/01/31 11:35:28;;;;;;;35.07;15.20;;;2.70;99.90;;;;;;4428477;28;657236;-70
2024/01/31 11:38:19;;;;;;;37.60;17.93;;;2.80;99.90;;;;;;4397629;28;657407;-70
2024/01/31 11:41:07;;;;;;;35.60;14.77;;;2.80;99.90;;;;;;4410516;28;657668;-70
2024/01/31 11:43:54;;;;;;;15.97;7.27;;;2.80;99.90;;;;;;4390834;28;657350;-71
2024/01/31 11:46:41;;;;;;;20.90;9.90;;;2.80;99.90;;;;;;4435550;28;656494;-70
2024/01/31 11:49:29;;;;;;;34.90;16.20;;;2.70;99.90;;;;;;4411662;28;656742;-70
2024/01/31 11:52:16;;;;;;;27.83;11.13;;;2.80;99.90;;;;;;4421568;28;657819;-70
2024/01/31 11:55:06;;;;;;;46.90;18.60;;;2.80;99.90;;;;;;4406961;28;657456;-70
2024/01/31 11:57:53;;;;;;;28.77;13.13;;;2.80;99.90;;;;;;4403654;28;657762;-70
2024/01/31 12:00:41;;;;;;;30.17;11.30;;;2.70;99.90;;;;;;4421708;28;657820;-70
2024/01/31 12:03:28;;;;;;;45.60;21.40;;;2.80;99.90;;;;;;4413688;28;657327;-70
2024/01/31 12:06:18;;;;;;;43.17;17.80;;;2.70;99.90;;;;;;4434851;28;658304;-70
2024/01/31 12:09:05;;;;;;;39.10;18.37;;;2.80;99.90;;;;;;4404220;28;658345;-70
2024/01/31 12:11:54;;;;;;;43.35;20.05;;;2.80;99.90;;;;;;4416238;28;657704;-70
2024/01/31 12:14:41;;;;;;;41.53;19.83;;;2.80;99.90;;;;;;4438834;28;657356;-69
2024/01/31 12:17:28;;;;;;;20.93;8.37;;;2.80;99.90;;;;;;4407965;28;658376;-70
2024/01/31 12:20:17;;;;;;;45.43;19.97;;;2.90;99.90;;;;;;4435159;28;656551;-70
2024/01/31 12:23:04;;;;;;;46.07;21.73;;;2.80;99.90;;;;;;4411266;28;658259;-70
2024/01/31 12:25:51;;;;;;;39.10;19.77;;;2.70;99.90;;;;;;4437629;28;657138;-71
2024/01/31 12:28:41;;;;;;;28.60;12.63;;;2.80;99.90;;;;;;4414207;28;657814;-70
2024/01/31 12:31:28;;;;;;;37.23;17.03;;;3.00;99.90;;;;;;4409644;28;658014;-70
2024/01/31 12:34:17;;;;;;;22.40;10.27;;;2.90;99.90;;;;;;4410538;28;658353;-70
2024/01/31 12:37:04;;;;;;;41.30;13.97;;;2.90;99.90;;;;;;4409604;28;657457;-70
2024/01/31 12:39:52;;;;;;;42.27;22.20;;;2.80;99.90;;;;;;4426783;28;657503;-70
2024/01/31 12:42:39;;;;;;;22.80;11.50;;;2.70;99.90;;;;;;4402929;28;658555;-71
2024/01/31 12:45:28;;;;;;;48.63;12.17;;;2.70;99.90;;;;;;4416979;28;657812;-70
2024/01/31 12:48:15;;;;;;;47.43;21.67;;;2.60;99.90;;;;;;4403779;28;658647;-70
2024/01/31 12:51:03;;;;;;;50.63;20.58;;;2.60;99.90;;;;;;4401728;28;658406;-70
2024/01/31 12:53:50;;;;;;;36.23;15.70;;;2.50;99.90;;;;;;4427696;28;658578;-70
2024/01/31 12:56:38;;;;;;;18.90;8.33;;;2.70;99.90;;;;;;4422320;28;657827;-70
2024/01/31 12:59:27;;;;;;;39.90;17.40;;;2.70;99.90;;;;;;4413792;28;656538;-70
2024/01/31 13:02:15;;;;;;;52.90;25.93;;;2.60;99.90;;;;;;4405943;28;658356;-70
2024/01/31 13:05:02;;;;;;;56.97;27.07;;;2.60;99.90;;;;;;4409502;28;657578;-69
2024/01/31 13:07:50;;;;;;;42.73;17.90;;;2.60;99.90;;;;;;4429463;28;658702;-70
2024/01/31 13:10:37;;;;;;;54.27;25.80;;;2.60;99.90;;;;;;4428497;28;658270;-70
2024/01/31 13:13:25;;;;;;;30.93;14.70;;;2.70;99.90;;;;;;4426597;28;658427;-70
2024/01/31 13:16:12;;;;;;;57.97;27.00;;;2.70;99.90;;;;;;4444530;28;657560;-69
2024/01/31 13:19:00;;;;;;;57.27;25.87;;;2.70;99.90;;;;;;4409736;28;657520;-70
2024/01/31 13:21:49;;;;;;;53.13;23.60;;;2.70;99.90;;;;;;4418007;28;657243;-70
2024/01/31 13:24:37;;;;;;;56.77;25.67;;;2.80;99.90;;;;;;4437484;28;657418;-70
2024/01/31 13:27:24;;;;;;;58.33;26.40;;;2.80;99.90;;;;;;4403211;28;658548;-70
2024/01/31 13:30:12;;;;;;;66.40;25.43;;;2.80;99.90;;;;;;4437979;28;657591;-70
2024/01/31 13:33:00;;;;;;;47.40;22.03;;;2.90;99.90;;;;;;4414268;28;657561;-69
2024/01/31 13:35:49;;;;;;;46.87;19.50;;;2.90;99.90;;;;;;4429125;28;658092;-70
2024/01/31 13:38:36;;;;;;;55.30;25.60;;;2.90;99.90;;;;;;4433085;28;657642;-70
2024/01/31 13:41:23;;;;;;;59.47;27.70;;;2.90;99.90;;;;;;4420433;28;657419;-70
2024/01/31 13:44:10;;;;;;;70.13;30.20;;;2.90;99.90;;;;;;4433811;28;657737;-70
2024/01/31 13:46:58;;;;;;;67.93;29.23;;;3.00;99.90;;;;;;4409718;28;657533;-70
2024/01/31 13:49:45;;;;;;;76.10;32.33;;;2.90;99.90;;;;;;4433879;28;658959;-70
2024/01/31 13:52:34;;;;;;;66.17;31.93;;;3.00;99.90;;;;;;4420319;28;657856;-70
2024/01/31 13:55:21;;;;;;;59.17;27.70;;;2.80;99.90;;;;;;4430967;28;657547;-69
2024/01/31 13:58:09;;;;;;;58.90;26.77;;;2.80;99.90;;;;;;4403341;28;658142;-70
2024/01/31 14:00:56;;;;;;;15.23;6.67;;;2.80;99.90;;;;;;4435948;28;657909;-70
2024/01/31 14:03:43;;;;;;;57.03;26.77;;;2.70;99.90;;;;;;4412395;28;656632;-70
2024/01/31 14:06:30;;;;;;;73.57;34.17;;;2.70;99.90;;;;;;4432982;28;659409;-70
2024/01/31 14:09:21;;;;;;;77.32;31.02;;;2.60;99.90;;;;;;4413057;28;657506;-70
2024/01/31 14:12:08;;;;;;;72.00;30.80;;;2.70;99.90;;;;;;4413237;28;657977;-70